Terminal Aerodrome Forecast
Issued by NWS

Home | Current Version | Previous Version | Text Only | Print | Product List | Glossary On
Versions: 1 2 3 4 5 6 7 8 9 10 11 12 13 14 15 16 17 18 19 20 21 22 23 24 25 26 27 28
000
FTUS44 KFWD 210853 AAA
TAFFTW
TAF AMD
KFTW 210853Z 2109/2206 18016KT P6SM OVC017
     FM211700 20016KT P6SM BKN025
     FM211900 21017KT P6SM BKN035
     FM220300 25015KT P6SM SKC=

USA.gov is the U.S. government's official web portal to all federal, state and local government web resources and services.